createdAt,value
2018-03-02T00:02:27.726Z,96779.44
2018-03-02T00:04:55.969Z,96771.98
2018-03-02T00:07:24.232Z,96768.84
2018-03-02T00:09:53.265Z,96774.71
2018-03-02T00:12:21.532Z,96765.02
2018-03-02T00:14:49.784Z,96766.45
2018-03-02T00:17:18.810Z,96760.30
2018-03-02T00:19:47.059Z,96751.62
2018-03-02T00:22:16.091Z,96747.63
2018-03-02T00:24:44.354Z,96748.86
2018-03-02T00:27:12.610Z,96743.88
2018-03-02T00:29:40.867Z,96741.40
2018-03-02T00:32:09.896Z,96746.88
2018-03-02T00:34:38.155Z,96749.75
2018-03-02T00:37:06.424Z,96740.57
2018-03-02T00:39:35.444Z,96735.75
2018-03-02T00:42:03.706Z,96730.88
2018-03-02T00:44:31.965Z,96721.40
2018-03-02T00:47:00.993Z,96718.78
2018-03-02T00:49:29.254Z,96715.03
2018-03-02T00:51:57.513Z,96711.09
2018-03-02T00:54:25.770Z,96709.25
2018-03-02T00:56:54.793Z,96701.11
2018-03-02T00:59:23.064Z,96696.42
2018-03-02T01:01:51.403Z,96690.34
2018-03-02T01:04:20.448Z,96689.11
2018-03-02T01:06:48.759Z,96684.12
2018-03-02T01:09:17.032Z,96682.77
2018-03-02T01:11:45.328Z,96678.32
2018-03-02T01:14:13.622Z,96689.77
2018-03-02T01:16:42.684Z,96679.95
2018-03-02T01:19:10.959Z,96684.44
2018-03-02T01:21:39.247Z,96680.17
2018-03-02T01:24:07.523Z,96668.67
2018-03-02T01:26:36.577Z,96673.95
2018-03-02T01:29:04.857Z,96666.57
2018-03-02T01:31:33.132Z,96667.16
2018-03-02T01:34:01.433Z,96669.34
2018-03-02T01:36:29.752Z,96671.34
2018-03-02T01:38:58.810Z,96670.14
2018-03-02T01:41:27.867Z,96661.84
2018-03-02T01:43:56.164Z,96671.95
2018-03-02T01:46:24.453Z,96665.35
2018-03-02T01:48:52.778Z,96654.67
2018-03-02T01:51:39.012Z,96644.81
2018-03-02T01:54:07.287Z,96649.39
2018-03-02T01:56:35.559Z,96653.09
2018-03-02T01:59:03.860Z,96656.16
2018-03-02T02:01:32.136Z,96647.80
2018-03-02T02:04:00.461Z,96652.48
2018-03-02T02:06:28.734Z,96645.41
2018-03-02T02:08:57.011Z,96652.10
2018-03-02T02:11:25.333Z,96650.74
2018-03-02T02:13:54.412Z,96650.06
2018-03-02T02:16:22.710Z,96643.30
2018-03-02T02:18:51.017Z,96646.50
2018-03-02T02:21:20.057Z,96641.52
2018-03-02T02:23:48.357Z,96621.67
2018-03-02T02:26:16.648Z,96620.61
2018-03-02T02:28:44.922Z,96614.20
2018-03-02T02:31:13.229Z,96608.90
2018-03-02T02:33:41.514Z,96601.20
2018-03-02T02:36:09.823Z,96599.28
2018-03-02T02:38:38.098Z,96605.60
2018-03-02T02:41:06.384Z,96604.84
2018-03-02T02:43:34.650Z,96608.00
2018-03-02T02:46:02.946Z,96601.52
2018-03-02T02:48:31.246Z,96599.22
2018-03-02T02:51:00.337Z,96583.83
2018-03-02T02:53:29.400Z,96592.77
2018-03-02T02:55:57.694Z,96587.19
2018-03-02T02:58:25.978Z,96585.41
2018-03-02T03:00:54.295Z,96582.88
2018-03-02T03:03:22.565Z,96585.59
2018-03-02T03:05:50.854Z,96590.11
2018-03-02T03:08:19.137Z,96588.83
2018-03-02T03:10:47.425Z,96584.77
2018-03-02T03:13:15.729Z,96585.21
2018-03-02T03:15:44.037Z,96586.34
2018-03-02T03:18:12.336Z,96581.91
2018-03-02T03:20:40.609Z,96581.86
2018-03-02T03:23:08.886Z,96577.52
2018-03-02T03:25:37.175Z,96574.28
2018-03-02T03:28:05.477Z,96573.75
2018-03-02T03:30:33.768Z,96571.58
2018-03-02T03:33:02.075Z,96573.75
2018-03-02T03:35:30.344Z,96572.78
2018-03-02T03:38:00.639Z,96567.20
2018-03-02T03:40:28.914Z,96562.22
2018-03-02T03:42:57.200Z,96558.79
2018-03-02T03:45:26.242Z,96546.88
2018-03-02T03:47:54.553Z,96546.93
2018-03-02T03:50:22.866Z,96546.52
2018-03-02T03:52:51.176Z,96534.77
2018-03-02T03:55:19.472Z,96539.38
2018-03-02T03:57:47.758Z,96526.80
2018-03-02T04:00:16.032Z,96533.15
2018-03-02T04:02:44.312Z,96537.83
2018-03-02T04:05:12.600Z,96533.62
2018-03-02T04:07:40.909Z,96537.23
2018-03-02T04:10:09.181Z,96527.66
2018-03-02T04:12:37.485Z,96528.33
2018-03-02T04:15:05.760Z,96531.73
2018-03-02T04:17:34.060Z,96537.12
2018-03-02T04:20:02.341Z,96542.73
2018-03-02T04:22:30.626Z,96532.08
2018-03-02T04:24:58.997Z,96532.89
2018-03-02T04:27:28.032Z,96519.86
2018-03-02T04:29:56.348Z,96516.41
2018-03-02T04:32:24.641Z,96514.24
2018-03-02T04:34:53.785Z,96516.80
2018-03-02T04:37:22.080Z,96519.83
2018-03-02T04:39:50.367Z,96510.37
2018-03-02T04:42:18.665Z,96509.80
2018-03-02T04:44:46.961Z,96510.92
2018-03-02T04:47:15.257Z,96507.70
2018-03-02T04:49:44.319Z,96503.34
2018-03-02T04:52:12.627Z,96496.52
2018-03-02T04:54:41.704Z,96494.08
2018-03-02T04:57:10.018Z,96493.14
2018-03-02T04:59:38.308Z,96497.02
2018-03-02T05:02:06.598Z,96479.80
2018-03-02T05:04:34.889Z,96473.44
2018-03-02T05:07:03.159Z,96459.45
2018-03-02T05:09:31.457Z,96454.81
2018-03-02T05:11:59.744Z,96449.54
2018-03-02T05:14:28.823Z,96439.91
2018-03-02T05:16:57.141Z,96445.21
2018-03-02T05:19:25.435Z,96437.78
2018-03-02T05:21:53.752Z,96429.99
2018-03-02T05:24:22.035Z,96437.05
2018-03-02T05:26:50.358Z,96436.27
2018-03-02T05:29:18.679Z,96425.64
2018-03-02T05:31:46.987Z,96427.16
2018-03-02T05:34:15.290Z,96429.48
2018-03-02T05:36:43.570Z,96423.80
2018-03-02T05:39:11.841Z,96424.52
2018-03-02T05:41:40.125Z,96422.28
2018-03-02T05:44:08.421Z,96426.06
2018-03-02T05:46:36.730Z,96422.30
2018-03-02T05:49:05.813Z,96421.83
2018-03-02T05:51:34.117Z,96422.82
2018-03-02T05:54:03.187Z,96422.50
2018-03-02T05:56:31.500Z,96420.09
2018-03-02T05:58:59.791Z,96421.91
2018-03-02T06:01:28.064Z,96429.89
2018-03-02T06:03:56.343Z,96428.83
2018-03-02T06:06:24.623Z,96425.89
2018-03-02T06:08:52.899Z,96423.23
2018-03-02T06:11:21.207Z,96412.95
2018-03-02T06:13:49.481Z,96407.49
2018-03-02T06:16:17.744Z,96400.78
2018-03-02T06:18:46.046Z,96399.20
2018-03-02T06:21:14.342Z,96396.58
2018-03-02T06:23:42.627Z,96401.67
2018-03-02T06:26:10.911Z,96403.83
2018-03-02T06:28:39.197Z,96401.70
2018-03-02T06:31:07.468Z,96399.70
2018-03-02T06:33:35.762Z,96400.06
2018-03-02T06:36:04.055Z,96395.09
2018-03-02T06:38:32.342Z,96400.49
2018-03-02T06:41:00.602Z,96402.73
2018-03-02T06:43:28.894Z,96398.42
2018-03-02T06:45:57.208Z,96394.14
2018-03-02T06:48:26.263Z,96388.23
2018-03-02T06:50:54.553Z,96392.08
2018-03-02T06:53:22.861Z,96385.59
2018-03-02T06:55:51.152Z,96380.14
2018-03-02T06:58:19.459Z,96378.24
2018-03-02T07:00:47.727Z,96375.11
2018-03-02T07:03:16.015Z,96387.36
2018-03-02T07:05:44.291Z,96382.74
2018-03-02T07:08:12.577Z,96374.36
2018-03-02T07:10:40.843Z,96380.50
2018-03-02T07:13:09.140Z,96376.41
2018-03-02T07:15:37.419Z,96377.73
2018-03-02T07:18:05.692Z,96364.39
2018-03-02T07:20:33.996Z,96372.84
2018-03-02T07:23:02.275Z,96366.00
2018-03-02T07:25:30.563Z,96363.26
2018-03-02T07:27:58.817Z,96365.17
2018-03-02T07:30:27.844Z,96356.34
2018-03-02T07:32:56.105Z,96362.08
2018-03-02T07:35:24.367Z,96359.36
2018-03-02T07:37:53.400Z,96347.81
2018-03-02T07:40:21.658Z,96345.09
2018-03-02T07:42:49.911Z,96347.58
2018-03-02T07:45:18.935Z,96341.56
2018-03-02T07:47:47.188Z,96335.03
2018-03-02T07:50:15.449Z,96324.54
2018-03-02T07:52:44.468Z,96326.97
2018-03-02T07:55:12.743Z,96322.45
2018-03-02T07:57:40.995Z,96318.66
2018-03-02T08:00:09.249Z,96317.27
2018-03-02T08:02:37.507Z,96310.86
2018-03-02T08:05:05.764Z,96301.77
2018-03-02T08:07:34.027Z,96298.95
2018-03-02T08:10:02.286Z,96302.81
2018-03-02T08:12:30.543Z,96296.27
2018-03-02T08:14:59.565Z,96292.36
2018-03-02T08:17:27.826Z,96295.08
2018-03-02T08:19:56.119Z,96289.88
2018-03-02T08:22:24.371Z,96290.79
2018-03-02T08:24:53.389Z,96289.23
2018-03-02T08:27:21.650Z,96288.80
2018-03-02T08:29:49.897Z,96284.23
2018-03-02T08:32:18.937Z,96285.09
2018-03-02T08:34:47.182Z,96282.47
2018-03-02T08:37:15.451Z,96273.86
2018-03-02T08:39:44.470Z,96267.22
2018-03-02T08:42:12.738Z,96269.62
2018-03-02T08:44:40.990Z,96275.33
2018-03-02T08:47:10.024Z,96281.55
2018-03-02T08:49:38.282Z,96282.27
2018-03-02T08:52:06.566Z,96267.35
2018-03-02T08:54:35.562Z,96267.82
2018-03-02T08:57:03.828Z,96270.38
2018-03-02T08:59:32.090Z,96272.94
2018-03-02T09:02:01.117Z,96269.95
2018-03-02T09:04:29.383Z,96267.59
2018-03-02T09:06:57.639Z,96273.05
2018-03-02T09:09:25.909Z,96268.48
2018-03-02T09:11:54.934Z,96268.01
2018-03-02T09:14:23.209Z,96264.06
2018-03-02T09:16:51.470Z,96257.33
2018-03-02T09:19:19.735Z,96248.80
2018-03-02T09:21:47.994Z,96249.05
2018-03-02T09:24:16.257Z,96249.20
2018-03-02T09:26:44.517Z,96246.08
2018-03-02T09:29:12.798Z,96251.67
2018-03-02T09:31:41.042Z,96243.20
2018-03-02T09:34:09.310Z,96240.81
2018-03-02T09:36:37.573Z,96237.34
2018-03-02T09:39:05.841Z,96236.63
2018-03-02T09:41:34.109Z,96234.52
2018-03-02T09:44:02.377Z,96236.20
2018-03-02T09:46:30.633Z,96240.70
2018-03-02T09:48:58.922Z,96246.92
2018-03-02T09:51:27.169Z,96241.60
2018-03-02T09:53:55.441Z,96240.79
2018-03-02T09:56:23.698Z,96227.43
2018-03-02T09:58:51.969Z,96224.33
2018-03-02T10:01:20.231Z,96223.74
2018-03-02T10:03:48.495Z,96229.09
2018-03-02T10:06:16.768Z,96231.35
2018-03-02T10:08:45.043Z,96229.67
2018-03-02T10:11:14.068Z,96227.73
2018-03-02T10:13:42.339Z,96227.44
2018-03-02T10:16:10.605Z,96230.22
2018-03-02T10:18:38.878Z,96225.19
2018-03-02T10:21:07.142Z,96218.68
2018-03-02T10:23:35.420Z,96221.09
2018-03-02T10:26:03.684Z,96218.88
2018-03-02T10:28:32.718Z,96216.66
2018-03-02T10:31:00.983Z,96216.32
2018-03-02T10:33:29.244Z,96210.88
2018-03-02T10:35:57.511Z,96212.44
2018-03-02T10:38:25.774Z,96212.59
2018-03-02T10:40:54.811Z,96200.92
2018-03-02T10:43:23.066Z,96198.70
2018-03-02T10:45:51.343Z,96206.25
2018-03-02T10:48:19.602Z,96201.16
2018-03-02T10:50:48.635Z,96198.06
2018-03-02T10:53:16.901Z,96193.20
2018-03-02T10:55:45.525Z,96190.94
2018-03-02T10:58:13.913Z,96190.73
2018-03-02T11:00:47.708Z,96182.16
2018-03-02T11:03:21.519Z,96181.34
2018-03-02T11:05:49.816Z,96171.23
2018-03-02T11:08:18.862Z,96167.96
2018-03-02T11:10:47.145Z,96167.41
2018-03-02T11:13:15.444Z,96169.95
2018-03-02T11:15:43.735Z,96172.94
2018-03-02T11:18:12.764Z,96165.50
2018-03-02T11:20:41.044Z,96167.34
2018-03-02T11:23:09.315Z,96162.47
2018-03-02T11:25:37.584Z,96154.23
2018-03-02T11:28:05.845Z,96149.84
2018-03-02T11:30:34.114Z,96148.67
2018-03-02T11:33:03.153Z,96150.56
2018-03-02T11:35:31.458Z,96155.30
2018-03-02T11:37:59.693Z,96156.39
2018-03-02T11:40:27.954Z,96154.02
2018-03-02T11:42:56.215Z,96154.20
2018-03-02T11:45:25.254Z,96151.59
2018-03-02T11:47:53.511Z,96150.12
2018-03-02T11:50:21.780Z,96141.18
2018-03-02T11:52:50.041Z,96148.49
2018-03-02T11:55:18.297Z,96153.56
2018-03-02T11:57:47.332Z,96154.16
2018-03-02T12:00:15.598Z,96141.91
2018-03-02T12:02:43.854Z,96140.30
2018-03-02T12:05:12.882Z,96138.89
2018-03-02T12:07:41.143Z,96141.67
2018-03-02T12:10:09.418Z,96136.77
2018-03-02T12:12:37.673Z,96136.00
2018-03-02T12:15:05.952Z,96133.55
2018-03-02T12:17:34.228Z,96139.77
2018-03-02T12:20:03.258Z,96144.70
2018-03-02T12:22:31.535Z,96138.01
2018-03-02T12:24:59.796Z,96138.23
2018-03-02T12:27:28.053Z,96134.53
2018-03-02T12:29:56.325Z,96136.41
2018-03-02T12:32:24.594Z,96135.30
2018-03-02T12:34:52.856Z,96142.35
2018-03-02T12:37:21.896Z,96129.86
2018-03-02T12:39:50.167Z,96128.73
2018-03-02T12:42:18.421Z,96129.59
2018-03-02T12:44:46.683Z,96133.68
2018-03-02T12:47:15.716Z,96127.39
2018-03-02T12:49:43.981Z,96128.20
2018-03-02T12:52:12.238Z,96130.31
2018-03-02T12:54:41.359Z,96129.67
2018-03-02T12:57:09.533Z,96126.63
2018-03-02T12:59:37.785Z,96130.38
2018-03-02T13:02:06.059Z,96129.13
2018-03-02T13:04:34.321Z,96134.78
2018-03-02T13:07:02.577Z,96129.37
2018-03-02T13:09:30.841Z,96123.44
2018-03-02T13:11:59.114Z,96126.98
2018-03-02T13:14:27.372Z,96129.35
2018-03-02T13:16:55.638Z,96135.64
2018-03-02T13:19:23.888Z,96148.31
2018-03-02T13:21:52.164Z,96157.47
2018-03-02T13:24:21.188Z,96155.93
2018-03-02T13:27:07.032Z,96161.23
2018-03-02T13:29:35.283Z,96166.55
2018-03-02T13:32:03.560Z,96168.36
2018-03-02T13:34:49.425Z,96166.20
2018-03-02T13:37:17.707Z,96168.75
2018-03-02T13:42:58.710Z,96166.20
2018-03-02T13:45:26.977Z,96172.53
2018-03-02T13:51:16.565Z,96182.59
2018-03-02T13:53:44.833Z,96178.59
2018-03-02T13:56:30.873Z,96178.28
2018-03-02T13:58:59.126Z,96177.73
2018-03-02T14:01:27.393Z,96189.34
2018-03-02T14:04:13.505Z,96188.52
2018-03-02T14:06:41.791Z,96186.88
2018-03-02T14:09:10.046Z,96197.37
2018-03-02T14:11:38.322Z,96200.25
2018-03-02T14:14:06.588Z,96198.11
2018-03-02T14:16:34.873Z,96202.72
2018-03-02T14:19:03.131Z,96199.14
2018-03-02T14:21:31.393Z,96198.16
2018-03-02T14:23:59.659Z,96206.42
2018-03-02T14:26:27.918Z,96208.09
2018-03-02T14:28:56.945Z,96210.21
2018-03-02T14:31:25.206Z,96215.41
2018-03-02T14:33:53.478Z,96210.26
2018-03-02T14:36:21.736Z,96212.23
2018-03-02T14:38:50.759Z,96215.09
2018-03-02T14:41:19.018Z,96211.00
2018-03-02T14:43:47.291Z,96211.06
2018-03-02T14:46:15.543Z,96210.19
2018-03-02T14:48:44.579Z,96212.58
2018-03-02T14:51:12.830Z,96221.77
2018-03-02T14:53:41.094Z,96219.61
2018-03-02T14:56:10.124Z,96219.61
2018-03-02T14:58:38.387Z,96218.44
2018-03-02T15:01:06.645Z,96223.34
2018-03-02T15:03:35.686Z,96221.79
2018-03-02T15:06:03.939Z,96224.83
2018-03-02T15:08:32.201Z,96225.59
2018-03-02T15:11:00.470Z,96228.05
2018-03-02T15:13:28.727Z,96222.37
2018-03-02T15:15:57.757Z,96225.17
2018-03-02T15:18:26.025Z,96228.48
2018-03-02T15:20:54.284Z,96232.62
2018-03-02T15:23:23.310Z,96227.80
2018-03-02T15:25:51.581Z,96234.11
2018-03-02T15:28:19.829Z,96235.81
2018-03-02T15:30:48.870Z,96236.98
2018-03-02T15:33:17.134Z,96241.21
2018-03-02T15:35:45.740Z,96243.75
2018-03-02T15:38:13.997Z,96242.09
2018-03-02T15:40:42.265Z,96247.88
2018-03-02T15:43:10.643Z,96257.67
2018-03-02T15:45:38.911Z,96256.37
2018-03-02T15:48:07.173Z,96258.00
2018-03-02T15:50:35.442Z,96271.14
2018-03-02T15:53:04.468Z,96273.16
2018-03-02T15:55:32.727Z,96276.86
2018-03-02T15:58:00.991Z,96275.39
2018-03-02T16:00:29.266Z,96278.70
2018-03-02T16:02:58.298Z,96280.75
2018-03-02T16:05:26.553Z,96276.13
2018-03-02T16:07:54.819Z,96278.93
2018-03-02T16:10:23.086Z,96287.26
2018-03-02T16:12:52.109Z,96293.38
2018-03-02T16:15:20.366Z,96285.05
2018-03-02T16:17:48.646Z,96294.23
2018-03-02T16:20:16.905Z,96298.83
2018-03-02T16:22:45.942Z,96302.50
2018-03-02T16:25:14.195Z,96304.61
2018-03-02T16:27:42.463Z,96301.19
2018-03-02T16:30:10.714Z,96304.09
2018-03-02T16:32:39.771Z,96311.14
2018-03-02T16:35:07.990Z,96321.19
2018-03-02T16:37:37.020Z,96324.47
2018-03-02T16:40:05.277Z,96328.13
2018-03-02T16:42:33.543Z,96324.47
2018-03-02T16:45:02.562Z,96326.58
2018-03-02T16:47:30.838Z,96336.84
2018-03-02T16:49:59.092Z,96338.84
2018-03-02T16:52:27.341Z,96336.77
2018-03-02T16:54:56.367Z,96341.78
2018-03-02T16:57:24.618Z,96344.72
2018-03-02T16:59:53.647Z,96347.62
2018-03-02T17:02:21.906Z,96349.31
2018-03-02T17:04:50.169Z,96356.81
2018-03-02T17:07:19.195Z,96362.88
2018-03-02T17:09:47.452Z,96359.98
2018-03-02T17:12:15.706Z,96369.93
2018-03-02T17:14:44.729Z,96365.37
2018-03-02T17:17:12.997Z,96371.55
2018-03-02T17:19:41.283Z,96374.08
2018-03-02T17:22:09.534Z,96372.37
2018-03-02T17:24:38.557Z,96371.63
2018-03-02T17:27:06.821Z,96380.55
2018-03-02T17:29:35.090Z,96373.55
2018-03-02T17:32:04.107Z,96382.78
2018-03-02T17:34:32.377Z,96385.72
2018-03-02T17:37:00.621Z,96393.52
2018-03-02T17:39:29.652Z,96394.77
2018-03-02T17:41:57.902Z,96398.04
2018-03-02T17:44:26.950Z,96399.66
2018-03-02T17:46:55.198Z,96404.63
2018-03-02T17:49:23.458Z,96398.75
2018-03-02T17:51:51.721Z,96398.33
2018-03-02T17:54:20.757Z,96399.16
2018-03-02T17:56:49.015Z,96409.93
2018-03-02T17:59:17.271Z,96419.38
2018-03-02T18:01:46.304Z,96416.52
2018-03-02T18:04:14.554Z,96421.55
2018-03-02T18:06:42.813Z,96419.55
2018-03-02T18:09:11.066Z,96419.09
2018-03-02T18:11:39.374Z,96417.27
2018-03-02T18:14:07.625Z,96418.55
2018-03-02T18:16:36.658Z,96418.59
2018-03-02T18:19:04.921Z,96422.25
2018-03-02T18:21:33.182Z,96421.55
2018-03-02T18:24:02.204Z,96422.37
2018-03-02T18:26:30.458Z,96417.77
2018-03-02T18:28:58.718Z,96417.39
2018-03-02T18:31:27.743Z,96422.74
2018-03-02T18:33:55.993Z,96421.63
2018-03-02T18:36:25.022Z,96422.45
2018-03-02T18:38:53.283Z,96422.00
2018-03-02T18:41:21.561Z,96427.72
2018-03-02T18:43:49.810Z,96427.17
2018-03-02T18:46:18.828Z,96423.91
2018-03-02T18:48:47.089Z,96425.64
2018-03-02T18:51:15.349Z,96429.79
2018-03-02T18:53:44.381Z,96423.98
2018-03-02T18:56:12.629Z,96428.05
2018-03-02T18:58:40.954Z,96428.09
2018-03-02T19:01:09.921Z,96426.09
2018-03-02T19:03:38.182Z,96425.55
2018-03-02T19:06:06.437Z,96432.64
2018-03-02T19:08:35.474Z,96431.81
2018-03-02T19:11:03.744Z,96429.41
2018-03-02T19:13:32.021Z,96427.06
2018-03-02T19:16:00.278Z,96428.66
2018-03-02T19:18:28.542Z,96426.47
2018-03-02T19:20:57.566Z,96424.69
2018-03-02T19:23:25.826Z,96422.16
2018-03-02T19:25:54.085Z,96418.27
2018-03-02T19:28:23.117Z,96430.33
2018-03-02T19:30:51.376Z,96434.18
2018-03-02T19:33:19.639Z,96425.02
2018-03-02T19:35:47.927Z,96424.69
2018-03-02T19:38:16.205Z,96424.81
2018-03-02T19:40:44.462Z,96426.42
2018-03-02T19:43:12.756Z,96431.90
2018-03-02T19:45:41.019Z,96439.36
2018-03-02T19:48:10.035Z,96434.30
2018-03-02T19:50:38.291Z,96436.33
2018-03-02T19:53:06.547Z,96439.23
2018-03-02T19:55:35.569Z,96433.77
2018-03-02T19:58:03.822Z,96438.77
2018-03-02T20:00:32.866Z,96436.73
2018-03-02T20:03:01.157Z,96428.37
2018-03-02T20:05:29.412Z,96429.75
2018-03-02T20:07:57.671Z,96421.50
2018-03-02T20:10:25.931Z,96424.39
2018-03-02T20:12:54.191Z,96432.31
2018-03-02T20:15:23.220Z,96436.13
2018-03-02T20:17:51.475Z,96427.66
2018-03-02T20:20:19.829Z,96435.51
2018-03-02T20:22:48.960Z,96435.96
2018-03-02T20:25:17.287Z,96442.67
2018-03-02T20:27:45.600Z,96431.48
2018-03-02T20:30:13.938Z,96426.02
2018-03-02T20:32:42.240Z,96422.33
2018-03-02T20:35:11.342Z,96428.87
2018-03-02T20:37:39.675Z,96426.42
2018-03-02T20:40:08.070Z,96423.31
2018-03-02T20:42:36.383Z,96424.88
2018-03-02T20:45:04.749Z,96426.16
2018-03-02T20:47:33.855Z,96431.17
2018-03-02T20:50:02.191Z,96429.48
2018-03-02T20:52:30.563Z,96435.42
2018-03-02T20:54:58.902Z,96430.81
2018-03-02T20:57:27.255Z,96428.45
2018-03-02T20:59:56.326Z,96428.91
2018-03-02T21:02:24.643Z,96427.17
2018-03-02T21:04:52.982Z,96424.59
2018-03-02T21:07:21.286Z,96420.83
2018-03-02T21:09:50.378Z,96423.77
2018-03-02T21:12:18.696Z,96426.99
2018-03-02T21:14:47.037Z,96428.70
2018-03-02T21:17:15.371Z,96429.53
2018-03-02T21:19:43.697Z,96438.23
2018-03-02T21:22:12.071Z,96432.83
2018-03-02T21:24:40.392Z,96434.73
2018-03-02T21:27:08.734Z,96429.77
2018-03-02T21:29:37.047Z,96444.72
2018-03-02T21:32:05.398Z,96438.50
2018-03-02T21:34:33.768Z,96439.30
2018-03-02T21:37:02.080Z,96433.48
2018-03-02T21:39:30.374Z,96443.43
2018-03-02T21:41:58.744Z,96443.84
2018-03-02T21:44:27.050Z,96444.25
2018-03-02T21:46:56.151Z,96447.20
2018-03-02T21:49:25.238Z,96443.28
2018-03-02T21:51:54.342Z,96444.44
2018-03-02T21:54:22.628Z,96446.47
2018-03-02T21:56:51.043Z,96455.77
2018-03-02T21:59:20.123Z,96455.02
2018-03-02T22:01:48.467Z,96445.00
2018-03-02T22:04:16.794Z,96445.36
2018-03-02T22:06:45.180Z,96456.14
2018-03-02T22:09:13.462Z,96452.36
2018-03-02T22:11:42.490Z,96457.42
2018-03-02T22:14:11.521Z,96454.19
2018-03-02T22:16:39.770Z,96460.03
2018-03-02T22:19:08.040Z,96462.62
2018-03-02T22:21:37.052Z,96464.31
2018-03-02T22:24:05.316Z,96462.45
2018-03-02T22:26:34.333Z,96463.05
2018-03-02T22:29:02.604Z,96462.20
2018-03-02T22:31:30.865Z,96464.33
2018-03-02T22:33:59.885Z,96453.05
2018-03-02T22:36:28.147Z,96461.38
2018-03-02T22:38:56.419Z,96462.09
2018-03-02T22:41:24.675Z,96455.92
2018-03-02T22:43:53.698Z,96460.70
2018-03-02T22:46:21.970Z,96461.65
2018-03-02T22:48:50.213Z,96466.13
2018-03-02T22:51:19.238Z,96470.92
2018-03-02T22:53:47.489Z,96473.25
2018-03-02T22:56:16.520Z,96473.06
2018-03-02T22:58:44.773Z,96475.59
2018-03-02T23:01:13.026Z,96476.12
2018-03-02T23:03:42.055Z,96482.73
2018-03-02T23:06:10.312Z,96483.80
2018-03-02T23:08:38.597Z,96484.42
2018-03-02T23:11:07.607Z,96486.70
2018-03-02T23:13:35.871Z,96486.66
2018-03-02T23:16:04.129Z,96483.34
2018-03-02T23:18:32.381Z,96481.80
2018-03-02T23:21:01.412Z,96481.45
2018-03-02T23:23:29.664Z,96482.00
2018-03-02T23:25:58.706Z,96479.09
2018-03-02T23:28:26.960Z,96481.48
2018-03-02T23:30:55.214Z,96474.20
2018-03-02T23:33:23.472Z,96469.08
2018-03-02T23:35:52.497Z,96460.45
2018-03-02T23:38:20.767Z,96459.30
2018-03-02T23:40:49.017Z,96456.14
2018-03-02T23:43:17.275Z,96460.69
2018-03-02T23:45:45.707Z,96461.38
2018-03-02T23:48:13.967Z,96468.00
2018-03-02T23:50:42.980Z,96461.48
2018-03-02T23:53:11.270Z,96461.87
2018-03-02T23:55:39.581Z,96465.88
2018-03-02T23:58:07.851Z,96461.53
